AirNav   Air Wisconsin Up To $57,000 Bonus
 
 524 users online  

2C6 Tri-County Airport
Yates City, Illinois, USA

GOING TO YATES CITY?


FAA INFORMATION EFFECTIVE 26 MARCH 2020

Location

FAA Identifier: 2C6
Lat/Long: 40-46-26.4000N 090-04-27.9000W
40-46.440000N 090-04.465000W
40.7740000,-90.0744167
(estimated)
Elevation: 661 ft. / 201.5 m (surveyed)
Variation: 01E (1985)
From city: 3 miles W of YATES CITY, IL
Time zone: UTC -5 (UTC -6 during Standard Time)
Zip code: 61572

Airport Operations

Airport use: Open to the public
Activation date: 03/1967
Control tower: no
ARTCC: CHICAGO CENTER
FSS: KANKAKEE FLIGHT SERVICE STATION
NOTAMs facility: IKK (NOTAM-D service available)
Attendance: ON CALL
Wind indicator: lighted
Segmented circle: no
Lights: ACTVT LIRL RY 02/20 - CTAF.

Airport Communications

CTAF: 122.9
WX AWOS-A at CTK (12 nm S): 122.8 (309-647-0699)
WX ASOS at PIA (19 nm E): PHONE 309-697-3611
WX AWOS-3 at GBG (19 nm NW): 118.975 (309-343-3711)

Nearby radio navigation aids

VOR radial/distance  VOR name  Freq  Var
PIAr290/14.0PEORIA VORTAC115.2004E
GBGr118/19.1GALESBURG VOR/DME109.8003E
BDFr224/32.0BRADFORD VORTAC114.7000E
BRLr081/38.8BURLINGTON VOR/DME111.4005E

 
NDB name  Hdg/Dist  Freq  Var  ID
MACOMB054/26.925101EJZY .--- --.. -.--

Airport Services

Parking: hangars and tiedowns
Airframe service: NONE
Powerplant service: NONE

Runway Information

Runway 2/20

Dimensions: 2809 x 150 ft. / 856 x 46 m
Surface: turf, in good condition
Runway edge lights: non-standard
RY 02/20 NSTD LIRL DUE TO SPACING.
RUNWAY 2  RUNWAY 20
Latitude: 40-46.220522N40-46.658683N
Longitude: 090-04.562465W090-04.367152W
Elevation: 658.2 ft.654.3 ft.
Traffic pattern: leftleft
Runway heading: 018 magnetic, 019 true198 magnetic, 199 true
Touchdown point: yes, no lightsyes, no lights

Airport Ownership and Management from official FAA records

Ownership: Privately-owned
Owner: TRI COUNTY ARPT DEVEL CORP
1942 ST. RT. 8
YATES CITY, IL 61572
Phone 309-369-5343
Manager: DAVE SHIPLEY
1942 ST. RT. 8
YATES CITY, IL 61572
Phone 309-369-5343

Airport Operational Statistics

Aircraft based on the field: 28
Single engine airplanes: 20
Gliders airplanes: 1
Ultralights: 7
    
Aircraft operations: avg 27/day *
50% transient general aviation
50% local general aviation
* for 12-month period ending 31 August 2017

Additional Remarks

GEESE ON & INVOF ARPT.
OVERNIGHT CAMPING AND LODGING AVBL WITH PPR, CALL AMGR.
FOR CD CTC CHICAGO ARTCC AT 630-906-8921.

Instrument Procedures

There are no published instrument procedures at 2C6.

Some nearby airports with instrument procedures:

KCTK - Ingersoll Airport (12 nm S)
KPIA - General Downing - Peoria International Airport (19 nm E)
KGBG - Galesburg Municipal Airport (19 nm NW)
3MY - Mount Hawley Auxiliary Airport (21 nm E)
C15 - Pekin Municipal Airport (25 nm SE)
 
Loc | Ops | Rwys | IFR | FBO | Links
Com | Nav | Svcs | Stats | Notes
Area around 2C6 (Tri-County Airport)
 
Road maps at: MapQuest Bing Google
 
Aerial photo
WARNING: Photo may not be current or correct
Aerial photo of 2C6 (Tri-County Airport)
Photo by Dave Shipley, owner of Tri-County Airport
Photo taken 12-Jun-2010

Do you have a better or more recent aerial photo of Tri-County Airport that you would like to share? If so, please send us your photo.

 
Sectional chart

 
Airport distance calculator
Flying to Tri-County Airport? Find the distance to fly.

From to 2C6

Sunrise and sunset
Times for 09-Apr-2020
 Local
(UTC-5)
 Zulu
(UTC)
Morning civil twilight06:0211:02
Sunrise06:3011:30
Sunset19:3300:33
Evening civil twilight20:0101:01

Current date and time
Zulu (UTC)  09-Apr-2020 05:07:02
Local (UTC-5)  09-Apr-2020 00:07:02
 
METAR
KGBG 
19nm NW 
090455Z AUTO 31011G15KT 10SM CLR 08/01 A2987 RMK AO2 T00750011
KPIA 
19nm E 
090454Z 31010G18KT 10SM CLR 09/03 A2983 RMK AO2 SLP098 T00940028
KMQB 
30nm SW 
090455Z AUTO 32011KT 10SM CLR 08/02 A2989 RMK AO2 T00790018
KC75 
35nm NE 
090436Z AUTO 31013G20KT 10SM CLR 09/04 A2979 RMK AO2
TAF
KPIA 
19nm E 
082359Z 0900/0924 35015G25KT P6SM SCT045 FM090400 32009KT P6SM FEW250 FM090600 32009KT P6SM SKC WS020/33040KT FM090700 31009KT P6SM SKC FM091300 30012G22KT P6SM SKC FM092000 30023G35KT P6SM SCT060
NOTAMs
Click for the latest NOTAMs
NOTAMs are issued by the DoD/FAA and will open in a separate window not controlled by AirNav.

 

 
 

Would you like to see your business listed on this page?

 If your business provides an interesting product or service to pilots, flight crews, aircraft, or users of the Tri-County Airport, you should consider listing it here.  To start the listing process, click on the button below
 
Add a business
 

Other Pages about Tri-County Airport

Update a link
 
Copyright © AirNav, LLC. All rights reserved. Privacy Policy  Contact